sensor_id;sensor_type;location;lat;lon;timestamp;pressure;altitude;pressure_sealevel;temperature;humidity
81224;BME280;70698;44.402;18.522;2024-01-25T00:01:20;98281.84;;;3.40;82.13
81224;BME280;70698;44.402;18.522;2024-01-25T00:03:46;98315.44;;;3.43;81.90
81224;BME280;70698;44.402;18.522;2024-01-25T00:06:11;98306.47;;;3.47;81.94
81224;BME280;70698;44.402;18.522;2024-01-25T00:08:37;98293.53;;;3.58;80.85
81224;BME280;70698;44.402;18.522;2024-01-25T00:11:03;98314.81;;;3.63;80.92
81224;BME280;70698;44.402;18.522;2024-01-25T00:13:29;98313.50;;;3.58;80.93
81224;BME280;70698;44.402;18.522;2024-01-25T00:15:55;98303.75;;;3.72;79.34
81224;BME280;70698;44.402;18.522;2024-01-25T00:18:21;98294.19;;;3.73;78.66
81224;BME280;70698;44.402;18.522;2024-01-25T00:20:47;98297.72;;;3.72;78.85
81224;BME280;70698;44.402;18.522;2024-01-25T00:23:12;98293.66;;;3.92;77.40
81224;BME280;70698;44.402;18.522;2024-01-25T00:25:38;98260.84;;;4.02;76.96
81224;BME280;70698;44.402;18.522;2024-01-25T00:28:04;98251.28;;;4.13;75.54
81224;BME280;70698;44.402;18.522;2024-01-25T00:30:30;98253.31;;;4.32;74.89
81224;BME280;70698;44.402;18.522;2024-01-25T00:32:56;98233.94;;;4.47;73.83
81224;BME280;70698;44.402;18.522;2024-01-25T00:35:23;98222.09;;;4.54;73.27
81224;BME280;70698;44.402;18.522;2024-01-25T00:37:49;98245.06;;;4.71;72.61
81224;BME280;70698;44.402;18.522;2024-01-25T00:40:15;98252.97;;;4.81;72.40
81224;BME280;70698;44.402;18.522;2024-01-25T00:42:45;98254.03;;;4.90;72.67
81224;BME280;70698;44.402;18.522;2024-01-25T00:45:14;98261.97;;;4.99;71.90
81224;BME280;70698;44.402;18.522;2024-01-25T00:47:40;98274.88;;;5.01;72.31
81224;BME280;70698;44.402;18.522;2024-01-25T00:50:06;98282.78;;;5.10;71.70
81224;BME280;70698;44.402;18.522;2024-01-25T00:52:32;98274.88;;;5.01;72.98
81224;BME280;70698;44.402;18.522;2024-01-25T00:54:58;98269.56;;;4.91;73.23
81224;BME280;70698;44.402;18.522;2024-01-25T00:57:24;98275.59;;;4.81;73.10
81224;BME280;70698;44.402;18.522;2024-01-25T00:59:50;98268.94;;;4.54;74.96
81224;BME280;70698;44.402;18.522;2024-01-25T01:02:16;98263.75;;;4.65;74.58
81224;BME280;70698;44.402;18.522;2024-01-25T01:04:42;98259.13;;;4.69;73.82
81224;BME280;70698;44.402;18.522;2024-01-25T01:07:08;98252.41;;;4.66;73.78
81224;BME280;70698;44.402;18.522;2024-01-25T01:09:34;98260.69;;;4.71;74.80
81224;BME280;70698;44.402;18.522;2024-01-25T01:12:00;98254.28;;;4.75;73.81
81224;BME280;70698;44.402;18.522;2024-01-25T01:14:26;98245.75;;;4.73;73.58
81224;BME280;70698;44.402;18.522;2024-01-25T01:16:51;98280.56;;;4.72;74.03
81224;BME280;70698;44.402;18.522;2024-01-25T01:19:17;98279.25;;;4.56;75.04
81224;BME280;70698;44.402;18.522;2024-01-25T01:21:43;98255.22;;;4.41;75.64
81224;BME280;70698;44.402;18.522;2024-01-25T01:24:12;98255.47;;;4.38;76.32
81224;BME280;70698;44.402;18.522;2024-01-25T01:26:38;98245.53;;;4.65;73.86
81224;BME280;70698;44.402;18.522;2024-01-25T01:29:04;98241.72;;;5.03;71.30
81224;BME280;70698;44.402;18.522;2024-01-25T01:31:30;98222.50;;;5.15;70.72
81224;BME280;70698;44.402;18.522;2024-01-25T01:33:56;98218.84;;;5.06;70.97
81224;BME280;70698;44.402;18.522;2024-01-25T01:36:23;98228.16;;;5.20;70.63
81224;BME280;70698;44.402;18.522;2024-01-25T01:38:49;98235.16;;;5.08;72.24
81224;BME280;70698;44.402;18.522;2024-01-25T01:41:15;98248.81;;;5.01;72.32
81224;BME280;70698;44.402;18.522;2024-01-25T01:43:41;98245.28;;;5.02;73.27
81224;BME280;70698;44.402;18.522;2024-01-25T01:46:12;98231.63;;;5.09;72.45
81224;BME280;70698;44.402;18.522;2024-01-25T01:48:41;98231.16;;;5.15;72.01
81224;BME280;70698;44.402;18.522;2024-01-25T01:51:08;98228.00;;;4.78;75.08
81224;BME280;70698;44.402;18.522;2024-01-25T01:53:35;98242.56;;;4.59;76.91
81224;BME280;70698;44.402;18.522;2024-01-25T01:56:01;98253.34;;;4.65;74.79
81224;BME280;70698;44.402;18.522;2024-01-25T01:58:28;98241.97;;;4.66;76.07
81224;BME280;70698;44.402;18.522;2024-01-25T02:00:55;98249.78;;;4.44;78.04
81224;BME280;70698;44.402;18.522;2024-01-25T02:03:22;98269.59;;;4.12;80.16
81224;BME280;70698;44.402;18.522;2024-01-25T02:05:48;98289.00;;;4.08;81.52
81224;BME280;70698;44.402;18.522;2024-01-25T02:08:14;98275.00;;;3.63;83.30
81224;BME280;70698;44.402;18.522;2024-01-25T02:10:40;98263.47;;;3.07;85.94
81224;BME280;70698;44.402;18.522;2024-01-25T02:13:05;98280.53;;;2.98;87.78
81224;BME280;70698;44.402;18.522;2024-01-25T02:15:31;98274.59;;;2.96;87.83
81224;BME280;70698;44.402;18.522;2024-01-25T02:17:57;98274.69;;;3.07;87.16
81224;BME280;70698;44.402;18.522;2024-01-25T02:20:23;98300.63;;;3.20;87.75
81224;BME280;70698;44.402;18.522;2024-01-25T02:22:48;98287.94;;;3.28;87.86
81224;BME280;70698;44.402;18.522;2024-01-25T02:25:14;98303.06;;;3.34;88.31
81224;BME280;70698;44.402;18.522;2024-01-25T02:27:40;98314.69;;;3.41;88.18
81224;BME280;70698;44.402;18.522;2024-01-25T02:30:06;98305.72;;;3.45;87.95
81224;BME280;70698;44.402;18.522;2024-01-25T02:32:33;98315.25;;;3.33;88.61
81224;BME280;70698;44.402;18.522;2024-01-25T02:34:58;98321.44;;;3.43;89.81
81224;BME280;70698;44.402;18.522;2024-01-25T02:37:24;98343.53;;;3.49;90.75
81224;BME280;70698;44.402;18.522;2024-01-25T02:39:50;98294.34;;;3.59;88.21
81224;BME280;70698;44.402;18.522;2024-01-25T02:42:16;98279.53;;;3.72;87.97
81224;BME280;70698;44.402;18.522;2024-01-25T02:44:43;98262.81;;;3.87;86.04
81224;BME280;70698;44.402;18.522;2024-01-25T02:47:09;98249.41;;;3.80;87.34
81224;BME280;70698;44.402;18.522;2024-01-25T02:49:35;98227.94;;;3.55;89.12
81224;BME280;70698;44.402;18.522;2024-01-25T02:52:00;98239.66;;;3.60;89.71
81224;BME280;70698;44.402;18.522;2024-01-25T02:54:26;98272.91;;;3.68;90.52
81224;BME280;70698;44.402;18.522;2024-01-25T02:56:53;98225.13;;;3.69;90.45
81224;BME280;70698;44.402;18.522;2024-01-25T02:59:18;98208.41;;;3.84;91.70
81224;BME280;70698;44.402;18.522;2024-01-25T03:01:44;98175.47;;;3.96;92.51
81224;BME280;70698;44.402;18.522;2024-01-25T03:04:11;98154.19;;;4.02;91.70
81224;BME280;70698;44.402;18.522;2024-01-25T03:06:37;98134.22;;;4.02;89.99
81224;BME280;70698;44.402;18.522;2024-01-25T03:09:03;98170.28;;;4.18;89.04
81224;BME280;70698;44.402;18.522;2024-01-25T03:11:31;98188.16;;;4.22;89.16
81224;BME280;70698;44.402;18.522;2024-01-25T03:13:57;98231.41;;;4.23;90.70
81224;BME280;70698;44.402;18.522;2024-01-25T03:16:23;98250.72;;;4.32;89.93
81224;BME280;70698;44.402;18.522;2024-01-25T03:18:49;98273.66;;;4.27;89.83
81224;BME280;70698;44.402;18.522;2024-01-25T03:21:14;98271.03;;;4.16;90.14
81224;BME280;70698;44.402;18.522;2024-01-25T03:23:40;98255.56;;;4.25;90.22
81224;BME280;70698;44.402;18.522;2024-01-25T03:26:06;98250.84;;;4.30;89.38
81224;BME280;70698;44.402;18.522;2024-01-25T03:28:34;98250.34;;;4.25;88.94
81224;BME280;70698;44.402;18.522;2024-01-25T03:30:59;98275.66;;;4.12;88.69
81224;BME280;70698;44.402;18.522;2024-01-25T03:33:25;98280.06;;;3.88;90.33
81224;BME280;70698;44.402;18.522;2024-01-25T03:35:53;98284.06;;;3.57;93.71
81224;BME280;70698;44.402;18.522;2024-01-25T03:38:19;98278.47;;;3.51;95.90
81224;BME280;70698;44.402;18.522;2024-01-25T03:40:45;98282.81;;;3.63;96.12
81224;BME280;70698;44.402;18.522;2024-01-25T03:43:11;98298.91;;;3.68;95.30
81224;BME280;70698;44.402;18.522;2024-01-25T03:45:36;98297.94;;;3.69;94.59
81224;BME280;70698;44.402;18.522;2024-01-25T03:48:02;98300.53;;;3.45;96.48
81224;BME280;70698;44.402;18.522;2024-01-25T03:50:28;98315.75;;;3.62;96.53
81224;BME280;70698;44.402;18.522;2024-01-25T03:52:54;98306.47;;;3.71;94.93
81224;BME280;70698;44.402;18.522;2024-01-25T03:55:20;98290.78;;;3.49;93.99
81224;BME280;70698;44.402;18.522;2024-01-25T03:57:45;98282.75;;;3.15;96.53
81224;BME280;70698;44.402;18.522;2024-01-25T04:00:12;98282.72;;;3.28;98.33
81224;BME280;70698;44.402;18.522;2024-01-25T04:02:37;98286.00;;;3.42;97.66
81224;BME280;70698;44.402;18.522;2024-01-25T04:05:04;98289.31;;;3.68;97.09
81224;BME280;70698;44.402;18.522;2024-01-25T04:07:30;98280.16;;;3.86;95.88
81224;BME280;70698;44.402;18.522;2024-01-25T04:09:55;98280.16;;;3.86;95.42
81224;BME280;70698;44.402;18.522;2024-01-25T04:12:21;98278.56;;;3.97;95.97
81224;BME280;70698;44.402;18.522;2024-01-25T04:14:47;98268.59;;;3.90;96.00
81224;BME280;70698;44.402;18.522;2024-01-25T04:17:13;98285.03;;;3.91;96.29
81224;BME280;70698;44.402;18.522;2024-01-25T04:19:38;98278.56;;;3.97;96.03
81224;BME280;70698;44.402;18.522;2024-01-25T04:22:04;98280.91;;;4.00;96.31
81224;BME280;70698;44.402;18.522;2024-01-25T04:24:30;98268.22;;;3.84;97.65
81224;BME280;70698;44.402;18.522;2024-01-25T04:26:55;98277.13;;;3.93;97.42
81224;BME280;70698;44.402;18.522;2024-01-25T04:29:22;98261.78;;;4.01;95.58
81224;BME280;70698;44.402;18.522;2024-01-25T04:31:48;98239.91;;;4.03;96.28
81224;BME280;70698;44.402;18.522;2024-01-25T04:34:14;98208.47;;;4.06;95.17
81224;BME280;70698;44.402;18.522;2024-01-25T04:36:40;98229.03;;;4.09;93.32
81224;BME280;70698;44.402;18.522;2024-01-25T04:39:06;98255.66;;;4.13;91.95
81224;BME280;70698;44.402;18.522;2024-01-25T04:41:32;98228.50;;;4.28;91.49
81224;BME280;70698;44.402;18.522;2024-01-25T04:43:57;98226.13;;;4.47;90.38
81224;BME280;70698;44.402;18.522;2024-01-25T04:46:23;98205.75;;;4.86;87.63
81224;BME280;70698;44.402;18.522;2024-01-25T04:48:49;98218.09;;;4.72;88.27
81224;BME280;70698;44.402;18.522;2024-01-25T04:51:16;98221.63;;;4.71;88.48
81224;BME280;70698;44.402;18.522;2024-01-25T04:53:42;98202.34;;;4.63;88.35
81224;BME280;70698;44.402;18.522;2024-01-25T04:56:08;98199.97;;;4.71;87.91
81224;BME280;70698;44.402;18.522;2024-01-25T04:58:33;98196.53;;;4.82;86.85
81224;BME280;70698;44.402;18.522;2024-01-25T05:00:59;98192.84;;;4.84;86.67
81224;BME280;70698;44.402;18.522;2024-01-25T05:03:25;98175.41;;;5.07;85.06
81224;BME280;70698;44.402;18.522;2024-01-25T05:05:51;98143.88;;;5.10;84.64
81224;BME280;70698;44.402;18.522;2024-01-25T05:08:16;98131.94;;;5.07;84.19
81224;BME280;70698;44.402;18.522;2024-01-25T05:10:42;98142.25;;;5.30;83.39
81224;BME280;70698;44.402;18.522;2024-01-25T05:13:09;98137.19;;;5.49;81.93
81224;BME280;70698;44.402;18.522;2024-01-25T05:15:35;98144.00;;;5.61;80.79
81224;BME280;70698;44.402;18.522;2024-01-25T05:18:01;98166.44;;;5.73;79.60
81224;BME280;70698;44.402;18.522;2024-01-25T05:20:27;98169.50;;;5.78;79.37
81224;BME280;70698;44.402;18.522;2024-01-25T05:22:58;98156.09;;;5.83;78.93
81224;BME280;70698;44.402;18.522;2024-01-25T05:25:24;98144.56;;;6.06;77.11
81224;BME280;70698;44.402;18.522;2024-01-25T05:27:52;98139.81;;;6.51;73.12
81224;BME280;70698;44.402;18.522;2024-01-25T05:30:18;98138.63;;;6.74;72.01
81224;BME280;70698;44.402;18.522;2024-01-25T05:32:44;98159.47;;;7.05;69.77
81224;BME280;70698;44.402;18.522;2024-01-25T05:35:11;98158.63;;;7.14;68.60
81224;BME280;70698;44.402;18.522;2024-01-25T05:37:37;98167.19;;;7.16;69.04
81224;BME280;70698;44.402;18.522;2024-01-25T05:40:03;98168.25;;;7.13;69.88
81224;BME280;70698;44.402;18.522;2024-01-25T05:42:28;98165.53;;;7.24;68.95
81224;BME280;70698;44.402;18.522;2024-01-25T05:44:54;98164.28;;;7.28;68.56
81224;BME280;70698;44.402;18.522;2024-01-25T05:47:20;98142.34;;;6.72;73.37
81224;BME280;70698;44.402;18.522;2024-01-25T05:49:46;98141.56;;;6.11;76.50
81224;BME280;70698;44.402;18.522;2024-01-25T05:52:12;98137.69;;;5.63;79.39
81224;BME280;70698;44.402;18.522;2024-01-25T05:54:38;98126.91;;;5.47;79.64
81224;BME280;70698;44.402;18.522;2024-01-25T05:57:03;98141.00;;;5.86;75.69
81224;BME280;70698;44.402;18.522;2024-01-25T05:59:29;98162.09;;;5.94;74.83
81224;BME280;70698;44.402;18.522;2024-01-25T06:01:55;98161.69;;;5.99;76.28
81224;BME280;70698;44.402;18.522;2024-01-25T06:04:21;98164.16;;;5.80;77.69
81224;BME280;70698;44.402;18.522;2024-01-25T06:06:47;98171.16;;;5.38;79.18
81224;BME280;70698;44.402;18.522;2024-01-25T06:09:13;98184.91;;;5.29;80.10
81224;BME280;70698;44.402;18.522;2024-01-25T06:11:41;98173.63;;;4.96;81.11
81224;BME280;70698;44.402;18.522;2024-01-25T06:14:08;98215.22;;;4.87;83.45
81224;BME280;70698;44.402;18.522;2024-01-25T06:16:33;98233.34;;;4.77;83.44
81224;BME280;70698;44.402;18.522;2024-01-25T06:18:59;98255.41;;;4.16;86.36
81224;BME280;70698;44.402;18.522;2024-01-25T06:21:26;98250.25;;;3.81;88.77
81224;BME280;70698;44.402;18.522;2024-01-25T06:23:52;98237.22;;;3.46;91.76
81224;BME280;70698;44.402;18.522;2024-01-25T06:26:18;98224.09;;;3.71;91.13
81224;BME280;70698;44.402;18.522;2024-01-25T06:28:43;98233.75;;;3.93;89.14
81224;BME280;70698;44.402;18.522;2024-01-25T06:31:09;98230.22;;;4.16;87.32
81224;BME280;70698;44.402;18.522;2024-01-25T06:33:35;98211.19;;;4.16;86.57
81224;BME280;70698;44.402;18.522;2024-01-25T06:36:01;98204.22;;;4.61;83.83
81224;BME280;70698;44.402;18.522;2024-01-25T06:38:26;98199.53;;;5.09;80.60
81224;BME280;70698;44.402;18.522;2024-01-25T06:40:52;98191.88;;;5.60;77.56
81224;BME280;70698;44.402;18.522;2024-01-25T06:43:18;98194.78;;;6.19;74.28
81224;BME280;70698;44.402;18.522;2024-01-25T06:45:43;98197.75;;;6.35;73.85
81224;BME280;70698;44.402;18.522;2024-01-25T06:48:09;98204.81;;;6.54;72.93
81224;BME280;70698;44.402;18.522;2024-01-25T06:50:35;98219.72;;;6.63;72.72
81224;BME280;70698;44.402;18.522;2024-01-25T06:53:01;98221.25;;;6.66;72.42
81224;BME280;70698;44.402;18.522;2024-01-25T06:55:26;98200.88;;;6.60;72.17
81224;BME280;70698;44.402;18.522;2024-01-25T06:57:52;98226.34;;;7.17;67.02
81224;BME280;70698;44.402;18.522;2024-01-25T07:00:18;98249.16;;;7.05;69.30
81224;BME280;70698;44.402;18.522;2024-01-25T07:02:46;98251.44;;;6.89;70.32
81224;BME280;70698;44.402;18.522;2024-01-25T07:05:12;98246.72;;;6.53;73.02
81224;BME280;70698;44.402;18.522;2024-01-25T07:07:38;98241.91;;;5.54;77.13
81224;BME280;70698;44.402;18.522;2024-01-25T07:10:06;98267.22;;;5.42;78.22
81224;BME280;70698;44.402;18.522;2024-01-25T07:12:32;98249.81;;;5.43;79.13
81224;BME280;70698;44.402;18.522;2024-01-25T07:14:58;98249.16;;;5.50;78.19
81224;BME280;70698;44.402;18.522;2024-01-25T07:17:24;98237.88;;;5.61;77.45
81224;BME280;70698;44.402;18.522;2024-01-25T07:19:49;98248.97;;;6.06;74.53
81224;BME280;70698;44.402;18.522;2024-01-25T07:22:15;98217.06;;;6.54;75.71
81224;BME280;70698;44.402;18.522;2024-01-25T07:24:43;98231.72;;;6.75;75.02
81224;BME280;70698;44.402;18.522;2024-01-25T07:27:08;98244.91;;;6.74;76.83
81224;BME280;70698;44.402;18.522;2024-01-25T07:29:36;98216.69;;;6.68;76.44
81224;BME280;70698;44.402;18.522;2024-01-25T07:32:02;98200.84;;;6.90;74.65
81224;BME280;70698;44.402;18.522;2024-01-25T07:34:28;98178.28;;;6.99;74.90
81224;BME280;70698;44.402;18.522;2024-01-25T07:36:54;98181.19;;;6.96;76.11
81224;BME280;70698;44.402;18.522;2024-01-25T07:39:20;98196.00;;;6.85;77.18
81224;BME280;70698;44.402;18.522;2024-01-25T07:41:45;98191.75;;;6.84;76.91
81224;BME280;70698;44.402;18.522;2024-01-25T07:44:12;98192.56;;;6.85;76.39
81224;BME280;70698;44.402;18.522;2024-01-25T07:46:38;98189.69;;;6.88;75.99
81224;BME280;70698;44.402;18.522;2024-01-25T07:49:03;98200.41;;;6.85;76.05
81224;BME280;70698;44.402;18.522;2024-01-25T07:51:30;98187.63;;;6.82;75.49
81224;BME280;70698;44.402;18.522;2024-01-25T07:53:55;98196.97;;;6.84;75.06
81224;BME280;70698;44.402;18.522;2024-01-25T07:56:21;98196.31;;;6.92;74.67
81224;BME280;70698;44.402;18.522;2024-01-25T07:58:50;98216.66;;;6.98;75.08
81224;BME280;70698;44.402;18.522;2024-01-25T08:01:19;98216.69;;;7.08;74.39
81224;BME280;70698;44.402;18.522;2024-01-25T08:03:45;98212.16;;;7.10;73.89
81224;BME280;70698;44.402;18.522;2024-01-25T08:06:11;98220.53;;;7.13;73.79
81224;BME280;70698;44.402;18.522;2024-01-25T08:08:36;98219.88;;;7.11;73.53
81224;BME280;70698;44.402;18.522;2024-01-25T08:11:02;98211.47;;;7.17;72.78
81224;BME280;70698;44.402;18.522;2024-01-25T08:13:29;98216.03;;;7.15;72.60
81224;BME280;70698;44.402;18.522;2024-01-25T08:15:56;98209.28;;;7.22;72.50
81224;BME280;70698;44.402;18.522;2024-01-25T08:18:22;98206.53;;;7.33;72.89
81224;BME280;70698;44.402;18.522;2024-01-25T08:20:49;98208.06;;;7.36;71.63
81224;BME280;70698;44.402;18.522;2024-01-25T08:23:14;98211.53;;;7.46;71.51
81224;BME280;70698;44.402;18.522;2024-01-25T08:25:41;98199.81;;;7.50;71.31
81224;BME280;70698;44.402;18.522;2024-01-25T08:28:06;98202.44;;;7.50;71.25
81224;BME280;70698;44.402;18.522;2024-01-25T08:30:32;98218.97;;;7.51;71.18
81224;BME280;70698;44.402;18.522;2024-01-25T08:32:58;98207.25;;;7.55;71.29
81224;BME280;70698;44.402;18.522;2024-01-25T08:35:24;98203.97;;;7.72;72.22
81224;BME280;70698;44.402;18.522;2024-01-25T08:37:50;98189.47;;;7.87;71.30
81224;BME280;70698;44.402;18.522;2024-01-25T08:40:16;98199.25;;;7.85;70.32
81224;BME280;70698;44.402;18.522;2024-01-25T08:42:42;98189.19;;;8.00;70.20
81224;BME280;70698;44.402;18.522;2024-01-25T08:45:08;98194.78;;;8.14;69.84
81224;BME280;70698;44.402;18.522;2024-01-25T08:47:37;98196.44;;;8.15;69.14
81224;BME280;70698;44.402;18.522;2024-01-25T08:50:03;98168.88;;;8.31;68.92
81224;BME280;70698;44.402;18.522;2024-01-25T08:52:31;98178.19;;;8.43;68.74
81224;BME280;70698;44.402;18.522;2024-01-25T08:54:56;98170.09;;;8.36;67.76
81224;BME280;70698;44.402;18.522;2024-01-25T08:57:22;98176.56;;;8.42;67.68
81224;BME280;70698;44.402;18.522;2024-01-25T08:59:48;98178.16;;;8.52;67.63
81224;BME280;70698;44.402;18.522;2024-01-25T09:02:14;98184.03;;;8.37;67.08
81224;BME280;70698;44.402;18.522;2024-01-25T09:04:39;98196.69;;;8.41;66.96
81224;BME280;70698;44.402;18.522;2024-01-25T09:07:08;98175.94;;;8.85;65.84
81224;BME280;70698;44.402;18.522;2024-01-25T09:09:34;98203.00;;;9.03;65.77
81224;BME280;70698;44.402;18.522;2024-01-25T09:12:00;98193.84;;;8.89;65.71
81224;BME280;70698;44.402;18.522;2024-01-25T09:14:26;98196.34;;;8.91;65.94
81224;BME280;70698;44.402;18.522;2024-01-25T09:16:52;98185.28;;;8.87;65.58
81224;BME280;70698;44.402;18.522;2024-01-25T09:19:17;98210.19;;;8.74;66.19
81224;BME280;70698;44.402;18.522;2024-01-25T09:21:43;98211.97;;;9.28;63.99
81224;BME280;70698;44.402;18.522;2024-01-25T09:24:08;98213.63;;;9.64;61.69
81224;BME280;70698;44.402;18.522;2024-01-25T09:26:34;98212.97;;;9.80;61.54
81224;BME280;70698;44.402;18.522;2024-01-25T09:29:00;98217.81;;;10.10;59.92
81224;BME280;70698;44.402;18.522;2024-01-25T09:31:26;98211.38;;;10.90;55.23
81224;BME280;70698;44.402;18.522;2024-01-25T09:33:52;98219.72;;;11.36;55.69
81224;BME280;70698;44.402;18.522;2024-01-25T09:36:18;98228.59;;;11.27;55.86
81224;BME280;70698;44.402;18.522;2024-01-25T09:38:43;98237.25;;;11.11;55.20
81224;BME280;70698;44.402;18.522;2024-01-25T09:41:09;98224.88;;;10.61;56.56
81224;BME280;70698;44.402;18.522;2024-01-25T09:43:35;98228.00;;;10.91;56.19
81224;BME280;70698;44.402;18.522;2024-01-25T09:46:02;98201.59;;;11.08;55.17
81224;BME280;70698;44.402;18.522;2024-01-25T09:48:31;98217.56;;;11.23;55.56
81224;BME280;70698;44.402;18.522;2024-01-25T09:50:59;98226.44;;;11.22;56.83
81224;BME280;70698;44.402;18.522;2024-01-25T09:53:24;98221.91;;;10.90;55.91
81224;BME280;70698;44.402;18.522;2024-01-25T09:56:06;98218.06;;;11.27;54.60
81224;BME280;70698;44.402;18.522;2024-01-25T09:58:43;98211.88;;;10.86;55.00
81224;BME280;70698;44.402;18.522;2024-01-25T10:01:14;98209.34;;;10.76;55.01
81224;BME280;70698;44.402;18.522;2024-01-25T10:03:47;98196.38;;;10.41;55.93
81224;BME280;70698;44.402;18.522;2024-01-25T10:06:14;98199.00;;;10.41;56.70
81224;BME280;70698;44.402;18.522;2024-01-25T10:08:41;98186.06;;;10.04;55.37
81224;BME280;70698;44.402;18.522;2024-01-25T10:11:07;98191.38;;;10.12;58.08
81224;BME280;70698;44.402;18.522;2024-01-25T10:13:44;98178.41;;;10.10;56.72
81224;BME280;70698;44.402;18.522;2024-01-25T10:16:13;98184.63;;;10.09;55.60
81224;BME280;70698;44.402;18.522;2024-01-25T10:18:41;98194.41;;;9.99;57.04
81224;BME280;70698;44.402;18.522;2024-01-25T10:21:12;98193.78;;;10.23;56.35
81224;BME280;70698;44.402;18.522;2024-01-25T10:23:39;98197.25;;;10.06;55.46
81224;BME280;70698;44.402;18.522;2024-01-25T10:26:05;98193.34;;;10.10;55.29
81224;BME280;70698;44.402;18.522;2024-01-25T10:28:30;98200.91;;;10.13;56.35
81224;BME280;70698;44.402;18.522;2024-01-25T10:30:59;98193.63;;;10.07;56.07
81224;BME280;70698;44.402;18.522;2024-01-25T10:33:25;98201.22;;;10.10;54.58
81224;BME280;70698;44.402;18.522;2024-01-25T10:35:54;98199.72;;;10.25;54.76
81224;BME280;70698;44.402;18.522;2024-01-25T10:38:24;98180.06;;;10.37;54.42
81224;BME280;70698;44.402;18.522;2024-01-25T10:40:50;98163.75;;;10.25;54.11
81224;BME280;70698;44.402;18.522;2024-01-25T10:43:18;98184.09;;;11.57;50.35
81224;BME280;70698;44.402;18.522;2024-01-25T10:45:44;98161.09;;;11.84;49.17
81224;BME280;70698;44.402;18.522;2024-01-25T10:48:10;98155.31;;;12.68;46.65
81224;BME280;70698;44.402;18.522;2024-01-25T10:50:36;98172.31;;;12.57;46.49
81224;BME280;70698;44.402;18.522;2024-01-25T10:53:03;98169.28;;;12.13;46.68
81224;BME280;70698;44.402;18.522;2024-01-25T10:55:30;98179.06;;;12.51;45.79
81224;BME280;70698;44.402;18.522;2024-01-25T10:57:56;98169.66;;;13.04;44.46
81224;BME280;70698;44.402;18.522;2024-01-25T11:00:22;98153.72;;;13.20;43.44
81224;BME280;70698;44.402;18.522;2024-01-25T11:02:50;98148.66;;;13.11;43.80
81224;BME280;70698;44.402;18.522;2024-01-25T11:05:16;98145.75;;;13.59;43.17
81224;BME280;70698;44.402;18.522;2024-01-25T11:07:46;98119.59;;;14.02;41.22
81224;BME280;70698;44.402;18.522;2024-01-25T11:10:24;98121.78;;;13.98;41.16
81224;BME280;70698;44.402;18.522;2024-01-25T11:12:57;98113.22;;;14.26;40.95
81224;BME280;70698;44.402;18.522;2024-01-25T11:15:29;98124.56;;;14.78;40.67
81224;BME280;70698;44.402;18.522;2024-01-25T11:17:56;98127.44;;;14.98;39.80
81224;BME280;70698;44.402;18.522;2024-01-25T11:20:24;98116.69;;;15.42;39.12
81224;BME280;70698;44.402;18.522;2024-01-25T11:23:04;98123.03;;;15.83;39.01
81224;BME280;70698;44.402;18.522;2024-01-25T11:25:32;98130.09;;;15.55;40.42
81224;BME280;70698;44.402;18.522;2024-01-25T11:28:00;98135.16;;;15.99;38.63
81224;BME280;70698;44.402;18.522;2024-01-25T11:30:28;98134.28;;;15.92;39.23
81224;BME280;70698;44.402;18.522;2024-01-25T11:32:54;98132.09;;;16.30;37.90
81224;BME280;70698;44.402;18.522;2024-01-25T11:35:21;98126.41;;;15.99;38.98
81224;BME280;70698;44.402;18.522;2024-01-25T11:37:48;98146.38;;;15.73;38.48
81224;BME280;70698;44.402;18.522;2024-01-25T11:40:15;98141.84;;;16.51;37.52
81224;BME280;70698;44.402;18.522;2024-01-25T11:42:42;98138.97;;;16.18;38.34
81224;BME280;70698;44.402;18.522;2024-01-25T11:45:10;98135.94;;;15.93;38.11
81224;BME280;70698;44.402;18.522;2024-01-25T11:47:37;98139.50;;;15.79;38.36
81224;BME280;70698;44.402;18.522;2024-01-25T11:50:03;98135.31;;;15.48;39.08
81224;BME280;70698;44.402;18.522;2024-01-25T11:52:30;98135.00;;;15.01;40.13
81224;BME280;70698;44.402;18.522;2024-01-25T11:54:58;98126.41;;;15.14;41.77
81224;BME280;70698;44.402;18.522;2024-01-25T11:57:23;98131.56;;;15.22;40.99
81224;BME280;70698;44.402;18.522;2024-01-25T11:59:49;98122.78;;;15.78;38.58
81224;BME280;70698;44.402;18.522;2024-01-25T12:02:15;98122.84;;;16.19;37.90
81224;BME280;70698;44.402;18.522;2024-01-25T12:04:41;98127.00;;;16.01;38.09
81224;BME280;70698;44.402;18.522;2024-01-25T12:07:07;98116.97;;;16.24;39.31
81224;BME280;70698;44.402;18.522;2024-01-25T12:09:33;98119.41;;;15.91;39.14
81224;BME280;70698;44.402;18.522;2024-01-25T12:12:02;98127.25;;;16.06;39.66
81224;BME280;70698;44.402;18.522;2024-01-25T12:14:28;98114.28;;;16.52;38.90
81224;BME280;70698;44.402;18.522;2024-01-25T12:16:57;98114.75;;;17.03;37.52
81224;BME280;70698;44.402;18.522;2024-01-25T12:19:23;98113.66;;;16.15;39.70
81224;BME280;70698;44.402;18.522;2024-01-25T12:21:48;98096.72;;;16.51;38.41
81224;BME280;70698;44.402;18.522;2024-01-25T12:24:14;98087.59;;;17.14;37.81
81224;BME280;70698;44.402;18.522;2024-01-25T12:26:41;98102.63;;;18.07;36.23
81224;BME280;70698;44.402;18.522;2024-01-25T12:29:07;98095.47;;;17.75;36.32
81224;BME280;70698;44.402;18.522;2024-01-25T12:31:34;98095.28;;;16.83;36.12
81224;BME280;70698;44.402;18.522;2024-01-25T12:34:00;98087.19;;;17.17;37.38
81224;BME280;70698;44.402;18.522;2024-01-25T12:36:26;98083.47;;;16.98;37.20
81224;BME280;70698;44.402;18.522;2024-01-25T12:38:52;98086.06;;;17.66;36.24
81224;BME280;70698;44.402;18.522;2024-01-25T12:41:17;98078.69;;;17.81;36.42
81224;BME280;70698;44.402;18.522;2024-01-25T12:43:43;98073.19;;;17.82;36.74
81224;BME280;70698;44.402;18.522;2024-01-25T12:46:09;98067.81;;;18.15;36.06
81224;BME280;70698;44.402;18.522;2024-01-25T12:48:34;98071.53;;;17.61;36.06
81224;BME280;70698;44.402;18.522;2024-01-25T12:51:01;98067.84;;;17.43;36.44
81224;BME280;70698;44.402;18.522;2024-01-25T12:53:27;98077.88;;;18.13;36.75